Time;durP1;ratioP1;P1;durP2;ratioP2;P2;SDS_P1;SDS_P2;PMS_P1;PMS_P2;Temp;Humidity;BMP_temperature;BMP_pressure;BME280_temperature;BME280_humidity;BME280_pressure;Samples;Min_cycle;Max_cycle;Signal;HPM_P1;HPM_P2
2021/12/02 00:01:09;;;;;;;;;;;;;;;;;;5093615;28;19920;-86
2021/12/02 00:03:35;;;;;;;;;;;;;;;;;;5093662;28;20363;-87
2021/12/02 00:06:01;;;;;;;;;;;;;;;;;;5093560;28;19931;-80
2021/12/02 00:08:26;;;;;;;;;;;;;;;;;;5075440;28;19920;-80
2021/12/02 00:10:52;;;;;;;;;;;;;;;;;;5093449;28;19965;-87
2021/12/02 00:13:22;;;;;;;;;;;;;;;;;;5093465;28;19956;-87
2021/12/02 00:18:41;;;;;;;;;;;;;;;;;;5093409;28;19916;-87
2021/12/02 00:21:05;;;;;;;;;;;;;;;;;;5093217;28;20362;-82
2021/12/02 00:23:47;;;;;;;;;;;;;;;;;;5093369;28;19916;-85
2021/12/02 00:26:14;;;;;;;;;;;;;;;;;;5093383;28;19954;-74
2021/12/02 00:28:40;;;;;;;;;;;;;;;;;;5093344;28;20287;-74
2021/12/02 00:31:10;;;;;;;;;;;;;;;;;;5093039;28;19920;-76
2021/12/02 00:33:39;;;;;;;;;;;;;;;;;;5093272;28;20298;-74
2021/12/02 00:36:04;;;;;;;;;;;;;;;;;;5075112;28;19941;-74
2021/12/02 00:38:30;;;;;;;;;;;;;;;;;;5093161;28;19916;-74
2021/12/02 00:40:55;;;;;;;;;;;;;;;;;;5093198;28;19916;-74
2021/12/02 00:43:21;;;;;;;;;;;;;;;;;;5093407;28;19969;-87
2021/12/02 00:45:46;;;;;;;;;;;;;;;;;;5093316;28;19916;-85
2021/12/02 00:48:12;;;;;;;;;;;;;;;;;;5075185;28;19923;-81
2021/12/02 00:50:39;;;;;;;;;;;;;;;;;;5092953;28;20011;-84
2021/12/02 00:53:06;;;;;;;;;;;;;;;;;;5078082;28;20379;-85
2021/12/02 00:55:32;;;;;;;;;;;;;;;;;;5078951;28;19912;-78
2021/12/02 00:57:57;;;;;;;;;;;;;;;;;;5097190;28;19939;-85
2021/12/02 01:00:23;;;;;;;;;;;;;;;;;;5078880;28;20380;-76
2021/12/02 01:02:49;;;;;;;;;;;;;;;;;;5096973;28;20268;-77
2021/12/02 01:05:14;;;;;;;;;;;;;;;;;;5078734;28;19952;-83
2021/12/02 01:07:41;;;;;;;;;;;;;;;;;;5097026;28;19923;-81
2021/12/02 01:10:08;;;;;;;;;;;;;;;;;;5096783;28;19939;-84
2021/12/02 01:12:34;;;;;;;;;;;;;;;;;;5096892;28;20368;-81
2021/12/02 01:15:00;;;;;;;;;;;;;;;;;;5096868;28;19952;-84
2021/12/02 01:17:25;;;;;;;;;;;;;;;;;;5096762;28;19920;-82
2021/12/02 01:19:51;;;;;;;;;;;;;;;;;;5096696;28;19927;-81
2021/12/02 01:22:16;;;;;;;;;;;;;;;;;;5096584;28;19961;-86
2021/12/02 01:24:43;;;;;;;;;;;;;;;;;;5096606;28;19916;-87
2021/12/02 01:27:09;;;;;;;;;;;;;;;;;;5096588;28;19987;-84
2021/12/02 01:29:35;;;;;;;;;;;;;;;;;;5096568;28;19969;-85
2021/12/02 01:32:05;;;;;;;;;;;;;;;;;;5078282;28;19920;-87
2021/12/02 01:34:31;;;;;;;;;;;;;;;;;;5096524;28;19923;-88
2021/12/02 01:36:57;;;;;;;;;;;;;;;;;;5096396;28;20395;-83
2021/12/02 01:39:23;;;;;;;;;;;;;;;;;;5096350;28;19916;-83
2021/12/02 01:41:49;;;;;;;;;;;;;;;;;;5096323;28;20272;-79
2021/12/02 01:44:16;;;;;;;;;;;;;;;;;;5096249;28;19916;-87
2021/12/02 01:46:42;;;;;;;;;;;;;;;;;;5077959;28;19991;-86
2021/12/02 01:49:09;;;;;;;;;;;;;;;;;;5096431;28;19956;-86
2021/12/02 01:51:45;;;;;;;;;;;;;;;;;;5096388;28;19920;-88
2021/12/02 01:54:12;;;;;;;;;;;;;;;;;;5096277;28;20325;-83
2021/12/02 01:57:03;;;;;;;;;;;;;;;;;;5096502;28;19923;-89
2021/12/02 01:59:33;;;;;;;;;;;;;;;;;;5087765;28;20387;-88
2021/12/02 02:01:59;;;;;;;;;;;;;;;;;;5096185;28;20261;-86
2021/12/02 02:04:25;;;;;;;;;;;;;;;;;;5096237;28;19923;-87
2021/12/02 02:06:57;;;;;;;;;;;;;;;;;;5096540;28;19923;-88
2021/12/02 02:09:27;;;;;;;;;;;;;;;;;;5096484;28;19923;-85
2021/12/02 02:11:53;;;;;;;;;;;;;;;;;;5095896;28;19916;-87
2021/12/02 02:14:19;;;;;;;;;;;;;;;;;;5095956;28;19920;-87
2021/12/02 02:16:47;;;;;;;;;;;;;;;;;;5096197;28;19965;-87
2021/12/02 02:19:13;;;;;;;;;;;;;;;;;;5077704;28;19916;-87
2021/12/02 02:21:38;;;;;;;;;;;;;;;;;;5095963;28;20383;-87
2021/12/02 02:24:04;;;;;;;;;;;;;;;;;;5095788;28;19919;-86
2021/12/02 02:26:39;;;;;;;;;;;;;;;;;;5095770;28;19989;-87
2021/12/02 02:29:05;;;;;;;;;;;;;;;;;;5095894;28;19916;-86
2021/12/02 02:31:31;;;;;;;;;;;;;;;;;;5095414;28;19931;-87
2021/12/02 02:33:57;;;;;;;;;;;;;;;;;;5095634;28;20014;-87
2021/12/02 02:36:25;;;;;;;;;;;;;;;;;;5095263;28;19969;-86
2021/12/02 02:39:02;;;;;;;;;;;;;;;;;;5077097;28;19916;-86
2021/12/02 02:41:34;;;;;;;;;;;;;;;;;;5095238;28;20272;-86
2021/12/02 02:44:00;;;;;;;;;;;;;;;;;;5095077;28;19959;-86
2021/12/02 02:46:25;;;;;;;;;;;;;;;;;;5094981;28;19916;-86
2021/12/02 02:48:51;;;;;;;;;;;;;;;;;;5095045;28;19927;-88
2021/12/02 02:51:17;;;;;;;;;;;;;;;;;;5094894;28;20419;-88
2021/12/02 02:53:42;;;;;;;;;;;;;;;;;;5094859;28;19916;-88
2021/12/02 02:56:12;;;;;;;;;;;;;;;;;;5076973;28;19920;-86
2021/12/02 03:08:50;;;;;;;;;;;;;;;;;;5094699;28;19919;-88
2021/12/02 03:11:18;;;;;;;;;;;;;;;;;;5094538;28;20060;-86
2021/12/02 03:13:50;;;;;;;;;;;;;;;;;;5094386;28;20379;-80
2021/12/02 03:18:59;;;;;;;;;;;;;;;;;;5094897;28;20337;-87
2021/12/02 03:21:25;;;;;;;;;;;;;;;;;;5096635;28;19916;-85
2021/12/02 03:23:55;;;;;;;;;;;;;;;;;;5105134;28;19970;-88
2021/12/02 03:26:21;;;;;;;;;;;;;;;;;;5107618;28;19916;-81
2021/12/02 03:28:50;;;;;;;;;;;;;;;;;;5092614;28;19931;-86
2021/12/02 03:31:16;;;;;;;;;;;;;;;;;;5114112;28;19927;-80
2021/12/02 03:33:42;;;;;;;;;;;;;;;;;;5110242;28;19916;-83
2021/12/02 03:36:08;;;;;;;;;;;;;;;;;;5094127;28;19920;-86
2021/12/02 03:38:33;;;;;;;;;;;;;;;;;;5094075;28;19920;-86
2021/12/02 03:40:59;;;;;;;;;;;;;;;;;;5075771;28;19923;-87
2021/12/02 03:43:27;;;;;;;;;;;;;;;;;;5075773;28;19916;-88
2021/12/02 03:45:52;;;;;;;;;;;;;;;;;;5094037;28;19955;-87
2021/12/02 03:48:18;;;;;;;;;;;;;;;;;;5093945;28;19956;-85
2021/12/02 03:50:43;;;;;;;;;;;;;;;;;;5093726;28;19923;-86
2021/12/02 03:53:09;;;;;;;;;;;;;;;;;;5093826;28;20283;-85
2021/12/02 03:55:34;;;;;;;;;;;;;;;;;;5093836;28;19916;-88
2021/12/02 03:57:59;;;;;;;;;;;;;;;;;;5093712;28;19920;-86
2021/12/02 04:00:25;;;;;;;;;;;;;;;;;;5075575;28;19938;-87
2021/12/02 04:02:51;;;;;;;;;;;;;;;;;;5093602;28;20329;-87
2021/12/02 04:05:16;;;;;;;;;;;;;;;;;;5094225;28;20645;-84
2021/12/02 04:07:42;;;;;;;;;;;;;;;;;;5094143;28;19916;-87
2021/12/02 04:10:08;;;;;;;;;;;;;;;;;;5076127;28;20144;-88
2021/12/02 04:15:10;;;;;;;;;;;;;;;;;;5094147;28;19917;-82
2021/12/02 04:17:43;;;;;;;;;;;;;;;;;;5075883;28;19920;-87
2021/12/02 04:20:12;;;;;;;;;;;;;;;;;;5093677;28;19958;-82
2021/12/02 04:22:38;;;;;;;;;;;;;;;;;;5075194;28;20333;-83
2021/12/02 04:25:04;;;;;;;;;;;;;;;;;;5093420;28;19927;-86
2021/12/02 04:27:29;;;;;;;;;;;;;;;;;;5093162;28;19923;-87
2021/12/02 04:29:55;;;;;;;;;;;;;;;;;;5074965;28;19924;-86
2021/12/02 04:32:20;;;;;;;;;;;;;;;;;;5079848;28;19921;-87
2021/12/02 04:34:46;;;;;;;;;;;;;;;;;;5089713;28;20019;-75
2021/12/02 04:37:11;;;;;;;;;;;;;;;;;;5091410;28;20019;-76
2021/12/02 04:39:37;;;;;;;;;;;;;;;;;;5093216;28;19916;-75
2021/12/02 04:42:03;;;;;;;;;;;;;;;;;;5093178;28;19923;-75
2021/12/02 04:44:28;;;;;;;;;;;;;;;;;;5093143;28;20427;-74
2021/12/02 04:46:54;;;;;;;;;;;;;;;;;;5075083;28;19959;-87
2021/12/02 04:49:19;;;;;;;;;;;;;;;;;;5092965;28;19955;-83
2021/12/02 04:51:45;;;;;;;;;;;;;;;;;;5092968;28;20437;-81
2021/12/02 04:54:10;;;;;;;;;;;;;;;;;;5093130;28;19934;-83
2021/12/02 04:56:37;;;;;;;;;;;;;;;;;;5074939;28;19916;-81
2021/12/02 04:59:02;;;;;;;;;;;;;;;;;;5090649;28;20287;-74
2021/12/02 05:01:28;;;;;;;;;;;;;;;;;;5087272;28;19916;-73
2021/12/02 05:03:57;;;;;;;;;;;;;;;;;;5075700;28;20272;-73
2021/12/02 05:06:22;;;;;;;;;;;;;;;;;;5060348;28;19920;-73
2021/12/02 05:08:47;;;;;;;;;;;;;;;;;;5071842;28;19920;-84
2021/12/02 05:11:13;;;;;;;;;;;;;;;;;;5054130;28;19916;-83
2021/12/02 05:13:39;;;;;;;;;;;;;;;;;;5072280;28;19916;-78
2021/12/02 05:16:04;;;;;;;;;;;;;;;;;;5072623;28;20004;-78
2021/12/02 05:18:30;;;;;;;;;;;;;;;;;;5072801;28;19916;-82
2021/12/02 05:20:57;;;;;;;;;;;;;;;;;;5054747;28;20351;-78
2021/12/02 05:23:22;;;;;;;;;;;;;;;;;;5072564;28;19924;-80
2021/12/02 05:25:48;;;;;;;;;;;;;;;;;;5054580;28;19982;-79
2021/12/02 05:28:15;;;;;;;;;;;;;;;;;;5072568;28;19939;-84
2021/12/02 05:30:40;;;;;;;;;;;;;;;;;;5072279;28;20359;-84
2021/12/02 05:33:06;;;;;;;;;;;;;;;;;;5072561;28;19917;-84
2021/12/02 05:35:31;;;;;;;;;;;;;;;;;;5072490;28;19917;-81
2021/12/02 05:37:57;;;;;;;;;;;;;;;;;;5073547;28;19916;-83
2021/12/02 05:40:22;;;;;;;;;;;;;;;;;;5076253;28;19923;-83
2021/12/02 05:42:48;;;;;;;;;;;;;;;;;;5076026;28;20003;-83
2021/12/02 05:45:13;;;;;;;;;;;;;;;;;;5076026;28;20299;-83
2021/12/02 05:47:39;;;;;;;;;;;;;;;;;;5076023;28;19943;-86
2021/12/02 05:50:04;;;;;;;;;;;;;;;;;;5075834;28;19923;-81
2021/12/02 05:52:30;;;;;;;;;;;;;;;;;;5075817;28;19983;-83
2021/12/02 05:54:57;;;;;;;;;;;;;;;;;;5075789;28;20265;-80
2021/12/02 05:57:23;;;;;;;;;;;;;;;;;;5075828;28;19917;-74
2021/12/02 05:59:48;;;;;;;;;;;;;;;;;;5076950;28;19921;-86
2021/12/02 06:02:14;;;;;;;;;;;;;;;;;;5078499;28;19917;-85
2021/12/02 06:04:40;;;;;;;;;;;;;;;;;;5076484;28;19920;-91
2021/12/02 06:07:05;;;;;;;;;;;;;;;;;;5081461;28;20007;-84
2021/12/02 06:09:31;;;;;;;;;;;;;;;;;;5075858;28;19917;-82
2021/12/02 06:11:57;;;;;;;;;;;;;;;;;;5080376;28;19924;-75
2021/12/02 06:14:22;;;;;;;;;;;;;;;;;;5078005;28;20360;-73
2021/12/02 06:16:48;;;;;;;;;;;;;;;;;;5075442;28;19979;-73
2021/12/02 06:19:13;;;;;;;;;;;;;;;;;;5075279;28;19916;-75
2021/12/02 06:21:39;;;;;;;;;;;;;;;;;;5041211;28;19973;-86
2021/12/02 06:24:05;;;;;;;;;;;;;;;;;;5075233;28;19912;-83
2021/12/02 06:26:31;;;;;;;;;;;;;;;;;;5090862;28;19916;-74
2021/12/02 06:28:56;;;;;;;;;;;;;;;;;;5075494;28;19917;-83
2021/12/02 06:31:23;;;;;;;;;;;;;;;;;;5074865;28;19920;-75
2021/12/02 06:33:49;;;;;;;;;;;;;;;;;;5075209;28;19916;-84
2021/12/02 06:36:14;;;;;;;;;;;;;;;;;;5075345;28;19923;-86
2021/12/02 06:38:41;;;;;;;;;;;;;;;;;;5090540;28;20003;-85
2021/12/02 06:41:07;;;;;;;;;;;;;;;;;;5075011;28;19920;-80
2021/12/02 06:43:32;;;;;;;;;;;;;;;;;;5074890;28;20010;-75
2021/12/02 06:45:59;;;;;;;;;;;;;;;;;;5078112;28;19931;-92
2021/12/02 06:48:24;;;;;;;;;;;;;;;;;;5074820;28;19916;-84
2021/12/02 06:50:50;;;;;;;;;;;;;;;;;;5074696;28;19923;-86
2021/12/02 06:53:17;;;;;;;;;;;;;;;;;;5074718;28;20295;-84
2021/12/02 06:55:43;;;;;;;;;;;;;;;;;;5074516;28;20384;-86
2021/12/02 06:58:08;;;;;;;;;;;;;;;;;;5074538;28;19925;-87
2021/12/02 07:00:34;;;;;;;;;;;;;;;;;;5074566;28;20292;-87
2021/12/02 07:03:01;;;;;;;;;;;;;;;;;;5074422;28;20015;-86
2021/12/02 07:05:27;;;;;;;;;;;;;;;;;;5074386;28;20442;-87
2021/12/02 07:07:53;;;;;;;;;;;;;;;;;;5056661;28;19912;-86
2021/12/02 07:10:21;;;;;;;;;;;;;;;;;;5074206;28;19920;-85
2021/12/02 07:12:49;;;;;;;;;;;;;;;;;;5074278;28;20349;-87
2021/12/02 07:15:17;;;;;;;;;;;;;;;;;;5074300;28;19974;-88
2021/12/02 07:17:45;;;;;;;;;;;;;;;;;;5074226;28;19916;-87
2021/12/02 07:20:10;;;;;;;;;;;;;;;;;;5074148;28;19920;-84
2021/12/02 07:22:36;;;;;;;;;;;;;;;;;;5074098;28;20003;-87
2021/12/02 07:25:02;;;;;;;;;;;;;;;;;;5056112;28;19921;-86
2021/12/02 07:27:27;;;;;;;;;;;;;;;;;;5074037;28;20319;-86
2021/12/02 07:29:53;;;;;;;;;;;;;;;;;;5073951;28;19916;-85
2021/12/02 07:32:19;;;;;;;;;;;;;;;;;;5073927;28;19928;-85
2021/12/02 07:34:45;;;;;;;;;;;;;;;;;;5073867;28;19917;-86
2021/12/02 07:37:14;;;;;;;;;;;;;;;;;;5073937;28;19916;-83
2021/12/02 07:39:40;;;;;;;;;;;;;;;;;;5055870;28;19916;-82
2021/12/02 07:42:05;;;;;;;;;;;;;;;;;;5073742;28;20391;-86
2021/12/02 07:44:33;;;;;;;;;;;;;;;;;;5073604;28;19969;-81
2021/12/02 07:46:58;;;;;;;;;;;;;;;;;;5073597;28;19922;-85
2021/12/02 07:49:24;;;;;;;;;;;;;;;;;;5073601;28;19939;-80
2021/12/02 07:51:50;;;;;;;;;;;;;;;;;;5073763;28;20011;-81
2021/12/02 07:54:17;;;;;;;;;;;;;;;;;;5073582;28;19916;-83
2021/12/02 07:56:45;;;;;;;;;;;;;;;;;;5073537;28;19919;-76
2021/12/02 07:59:10;;;;;;;;;;;;;;;;;;5073458;28;19970;-75
2021/12/02 08:01:36;;;;;;;;;;;;;;;;;;5073270;28;19916;-75
2021/12/02 08:04:01;;;;;;;;;;;;;;;;;;5073401;28;19938;-75
2021/12/02 08:06:28;;;;;;;;;;;;;;;;;;5073334;28;19962;-75
2021/12/02 08:08:53;;;;;;;;;;;;;;;;;;5073379;28;19917;-75
2021/12/02 08:11:19;;;;;;;;;;;;;;;;;;5055294;28;19921;-75
2021/12/02 08:13:50;;;;;;;;;;;;;;;;;;5074722;28;19916;-80
2021/12/02 08:16:16;;;;;;;;;;;;;;;;;;5073387;28;20394;-75
2021/12/02 08:18:41;;;;;;;;;;;;;;;;;;5075321;28;19980;-85
2021/12/02 08:21:07;;;;;;;;;;;;;;;;;;5074368;28;20319;-82
2021/12/02 08:23:32;;;;;;;;;;;;;;;;;;5074205;28;19916;-87
2021/12/02 08:25:58;;;;;;;;;;;;;;;;;;5058874;28;19995;-87
2021/12/02 08:28:23;;;;;;;;;;;;;;;;;;5075244;28;19924;-85
2021/12/02 08:30:50;;;;;;;;;;;;;;;;;;5073868;28;20394;-77
2021/12/02 08:33:18;;;;;;;;;;;;;;;;;;5084829;28;19925;-78
2021/12/02 08:35:43;;;;;;;;;;;;;;;;;;5118743;28;20353;-81
2021/12/02 08:38:12;;;;;;;;;;;;;;;;;;5094318;28;19916;-76
2021/12/02 08:40:39;;;;;;;;;;;;;;;;;;5082344;28;19920;-80
2021/12/02 08:43:11;;;;;;;;;;;;;;;;;;5093492;28;20382;-78
2021/12/02 08:45:39;;;;;;;;;;;;;;;;;;5092848;28;19923;-78
2021/12/02 08:48:05;;;;;;;;;;;;;;;;;;5092703;28;19916;-77
2021/12/02 08:50:31;;;;;;;;;;;;;;;;;;5082020;28;20367;-83
2021/12/02 08:52:57;;;;;;;;;;;;;;;;;;5088297;28;20273;-76
2021/12/02 08:55:23;;;;;;;;;;;;;;;;;;5091871;28;19955;-77
2021/12/02 08:57:50;;;;;;;;;;;;;;;;;;5092863;28;20272;-76
2021/12/02 09:00:18;;;;;;;;;;;;;;;;;;5091591;28;20444;-76
2021/12/02 09:02:43;;;;;;;;;;;;;;;;;;5091404;28;19974;-75
2021/12/02 09:05:09;;;;;;;;;;;;;;;;;;5092834;28;19920;-75
2021/12/02 09:07:35;;;;;;;;;;;;;;;;;;5091272;28;19923;-75
2021/12/02 09:10:01;;;;;;;;;;;;;;;;;;5092481;28;19916;-74
2021/12/02 09:12:26;;;;;;;;;;;;;;;;;;5093228;28;19945;-75
2021/12/02 09:14:52;;;;;;;;;;;;;;;;;;5096906;28;19916;-75
2021/12/02 09:17:17;;;;;;;;;;;;;;;;;;5096444;28;19954;-76
2021/12/02 09:19:43;;;;;;;;;;;;;;;;;;5095042;28;19927;-74
2021/12/02 09:22:08;;;;;;;;;;;;;;;;;;5095074;28;19927;-76
2021/12/02 09:24:34;;;;;;;;;;;;;;;;;;5094424;28;19920;-76
2021/12/02 09:27:00;;;;;;;;;;;;;;;;;;5096539;28;19916;-79
2021/12/02 09:29:25;;;;;;;;;;;;;;;;;;5095892;28;19916;-76
2021/12/02 09:31:51;;;;;;;;;;;;;;;;;;5095902;28;19920;-77
2021/12/02 09:34:17;;;;;;;;;;;;;;;;;;5094807;28;19916;-77
2021/12/02 09:36:43;;;;;;;;;;;;;;;;;;5096123;28;19916;-77
2021/12/02 09:39:10;;;;;;;;;;;;;;;;;;5096175;28;19920;-77
2021/12/02 09:41:36;;;;;;;;;;;;;;;;;;5095833;28;19942;-78
2021/12/02 09:44:02;;;;;;;;;;;;;;;;;;5095938;28;19920;-73
2021/12/02 09:46:28;;;;;;;;;;;;;;;;;;5095891;28;19912;-76
2021/12/02 09:48:56;;;;;;;;;;;;;;;;;;5095971;28;20421;-74
2021/12/02 09:51:28;;;;;;;;;;;;;;;;;;5095792;28;19920;-75
2021/12/02 09:54:00;;;;;;;;;;;;;;;;;;5095867;28;19926;-73
2021/12/02 09:56:29;;;;;;;;;;;;;;;;;;5095743;28;19916;-74
2021/12/02 09:58:58;;;;;;;;;;;;;;;;;;5095824;28;19994;-77
2021/12/02 10:01:30;;;;;;;;;;;;;;;;;;5091169;28;20255;-75
2021/12/02 10:04:01;;;;;;;;;;;;;;;;;;5086550;28;19920;-79
2021/12/02 10:06:31;;;;;;;;;;;;;;;;;;5095531;28;20440;-73
2021/12/02 10:11:26;;;;;;;;;;;;;;;;;;5095194;28;20428;-77
2021/12/02 10:14:00;;;;;;;;;;;;;;;;;;5095351;28;19920;-74
2021/12/02 10:16:31;;;;;;;;;;;;;;;;;;5095415;28;19916;-75
2021/12/02 10:21:41;;;;;;;;;;;;;;;;;;5095346;28;19931;-77
2021/12/02 10:24:09;;;;;;;;;;;;;;;;;;5094936;28;19916;-76
2021/12/02 10:26:43;;;;;;;;;;;;;;;;;;5093723;28;19939;-74
2021/12/02 10:29:09;;;;;;;;;;;;;;;;;;5076320;28;20520;-83
2021/12/02 10:31:37;;;;;;;;;;;;;;;;;;5093051;28;20406;-76
2021/12/02 10:34:03;;;;;;;;;;;;;;;;;;5076979;28;19916;-76
2021/12/02 10:36:33;;;;;;;;;;;;;;;;;;5083541;28;20312;-78
2021/12/02 10:39:08;;;;;;;;;;;;;;;;;;5083991;28;19924;-79
2021/12/02 10:41:34;;;;;;;;;;;;;;;;;;5076607;28;19927;-76
2021/12/02 10:44:17;;;;;;;;;;;;;;;;;;5092673;28;19920;-76
2021/12/02 10:46:56;;;;;;;;;;;;;;;;;;5089474;28;19919;-75
2021/12/02 10:49:22;;;;;;;;;;;;;;;;;;5094014;28;19920;-74
2021/12/02 10:51:52;;;;;;;;;;;;;;;;;;5094407;28;19919;-77
2021/12/02 10:54:23;;;;;;;;;;;;;;;;;;5094713;28;19969;-76
2021/12/02 10:56:50;;;;;;;;;;;;;;;;;;5094756;28;20473;-75
2021/12/02 10:59:33;;;;;;;;;;;;;;;;;;5094680;28;20024;-77
2021/12/02 11:02:04;;;;;;;;;;;;;;;;;;5094548;28;20268;-75
2021/12/02 11:04:37;;;;;;;;;;;;;;;;;;5094548;28;19927;-75
2021/12/02 11:07:09;;;;;;;;;;;;;;;;;;5093828;28;19964;-77
2021/12/02 11:09:35;;;;;;;;;;;;;;;;;;5094721;28;20335;-74
2021/12/02 11:12:08;;;;;;;;;;;;;;;;;;5094120;28;20048;-75
2021/12/02 11:14:34;;;;;;;;;;;;;;;;;;5076453;28;19920;-76
2021/12/02 11:17:10;;;;;;;;;;;;;;;;;;5094542;28;19927;-74
2021/12/02 11:19:35;;;;;;;;;;;;;;;;;;5080740;28;20341;-76
2021/12/02 11:22:07;;;;;;;;;;;;;;;;;;5092447;28;19919;-75
2021/12/02 11:24:33;;;;;;;;;;;;;;;;;;5093587;28;19935;-75
2021/12/02 11:27:11;;;;;;;;;;;;;;;;;;5088109;28;19924;-74
2021/12/02 11:30:00;;;;;;;;;;;;;;;;;;5089438;28;19927;-74
2021/12/02 11:32:43;;;;;;;;;;;;;;;;;;5073289;28;19921;-77
2021/12/02 11:35:19;;;;;;;;;;;;;;;;;;5072314;28;19924;-76
2021/12/02 11:37:47;;;;;;;;;;;;;;;;;;5072673;28;19924;-74
2021/12/02 11:40:14;;;;;;;;;;;;;;;;;;5073471;28;19921;-74
2021/12/02 11:42:40;;;;;;;;;;;;;;;;;;5073673;28;19924;-72
2021/12/02 11:45:06;;;;;;;;;;;;;;;;;;5066042;28;19970;-74
2021/12/02 11:47:33;;;;;;;;;;;;;;;;;;5060584;28;19921;-77
2021/12/02 11:49:59;;;;;;;;;;;;;;;;;;5060040;28;20290;-77
2021/12/02 11:52:25;;;;;;;;;;;;;;;;;;5072933;28;19920;-73
2021/12/02 11:54:50;;;;;;;;;;;;;;;;;;5073688;28;20368;-73
2021/12/02 11:57:16;;;;;;;;;;;;;;;;;;5073649;28;20419;-74
2021/12/02 11:59:41;;;;;;;;;;;;;;;;;;5073512;28;19916;-73
2021/12/02 12:02:07;;;;;;;;;;;;;;;;;;5073408;28;20026;-75
2021/12/02 12:04:38;;;;;;;;;;;;;;;;;;5073470;28;19920;-75
2021/12/02 12:07:11;;;;;;;;;;;;;;;;;;5073489;28;20353;-75
2021/12/02 12:09:36;;;;;;;;;;;;;;;;;;5073417;28;19917;-74
2021/12/02 12:12:03;;;;;;;;;;;;;;;;;;5073325;28;19978;-74
2021/12/02 12:14:37;;;;;;;;;;;;;;;;;;5073248;28;20372;-74
2021/12/02 12:17:08;;;;;;;;;;;;;;;;;;5073266;28;19917;-74
2021/12/02 12:19:38;;;;;;;;;;;;;;;;;;5073245;28;19916;-74
2021/12/02 12:22:05;;;;;;;;;;;;;;;;;;5073164;28;19916;-74
2021/12/02 12:24:42;;;;;;;;;;;;;;;;;;5072406;28;20318;-75
2021/12/02 12:27:13;;;;;;;;;;;;;;;;;;5069253;28;19963;-76
2021/12/02 12:29:39;;;;;;;;;;;;;;;;;;5069867;28;19924;-75
2021/12/02 12:32:52;;;;;;;;;;;;;;;;;;5093301;28;19916;-75
2021/12/02 12:35:04;;;;;;;;;;;;;;;;;;5079560;28;20018;-76
2021/12/02 12:40:14;;;;;;;;;;;;;;;;;;5081742;28;19991;-75
2021/12/02 12:43:15;;;;;;;;;;;;;;;;;;5080422;28;19921;-75
2021/12/02 12:45:42;;;;;;;;;;;;;;;;;;5077495;28;19928;-77
2021/12/02 12:48:09;;;;;;;;;;;;;;;;;;5095256;28;19927;-73
2021/12/02 12:50:42;;;;;;;;;;;;;;;;;;5076779;28;19935;-75
2021/12/02 12:53:17;;;;;;;;;;;;;;;;;;5090123;28;19938;-80
2021/12/02 12:55:50;;;;;;;;;;;;;;;;;;5089744;28;19955;-74
2021/12/02 12:58:16;;;;;;;;;;;;;;;;;;5076195;28;20441;-75
2021/12/02 13:00:46;;;;;;;;;;;;;;;;;;5077338;28;19923;-77
2021/12/02 13:03:17;;;;;;;;;;;;;;;;;;5076849;28;19924;-79
2021/12/02 13:05:59;;;;;;;;;;;;;;;;;;5077028;28;19928;-75
2021/12/02 13:08:26;;;;;;;;;;;;;;;;;;5084869;28;20399;-75
2021/12/02 13:10:55;;;;;;;;;;;;;;;;;;5088467;28;19912;-74
2021/12/02 13:13:22;;;;;;;;;;;;;;;;;;5091801;28;19970;-76
2021/12/02 13:15:48;;;;;;;;;;;;;;;;;;5096487;28;19918;-74
2021/12/02 13:18:31;;;;;;;;;;;;;;;;;;5093608;28;19920;-74
2021/12/02 13:20:56;;;;;;;;;;;;;;;;;;5080427;28;19923;-79
2021/12/02 13:23:27;;;;;;;;;;;;;;;;;;5084415;28;20286;-75
2021/12/02 13:25:54;;;;;;;;;;;;;;;;;;5082934;28;19923;-76
2021/12/02 13:28:22;;;;;;;;;;;;;;;;;;5083859;28;19924;-76
2021/12/02 13:30:54;;;;;;;;;;;;;;;;;;5078213;28;20040;-73
2021/12/02 13:33:29;;;;;;;;;;;;;;;;;;5084501;28;19924;-77
2021/12/02 13:35:55;;;;;;;;;;;;;;;;;;5080357;28;20296;-75
2021/12/02 13:38:21;;;;;;;;;;;;;;;;;;5079959;28;19924;-76
2021/12/02 13:40:46;;;;;;;;;;;;;;;;;;5088754;28;19920;-75
2021/12/02 13:43:13;;;;;;;;;;;;;;;;;;5080807;28;20299;-76
2021/12/02 13:45:39;;;;;;;;;;;;;;;;;;5080849;28;19975;-76
2021/12/02 13:48:05;;;;;;;;;;;;;;;;;;5079956;28;19920;-74
2021/12/02 13:50:40;;;;;;;;;;;;;;;;;;5076124;28;20014;-79
2021/12/02 13:53:06;;;;;;;;;;;;;;;;;;5075979;28;19924;-82
2021/12/02 13:55:35;;;;;;;;;;;;;;;;;;5086495;28;19924;-74
2021/12/02 14:00:38;;;;;;;;;;;;;;;;;;5081246;28;19920;-76
2021/12/02 14:03:04;;;;;;;;;;;;;;;;;;5087121;28;19916;-76
2021/12/02 14:05:31;;;;;;;;;;;;;;;;;;5095989;28;19912;-75
2021/12/02 14:07:59;;;;;;;;;;;;;;;;;;5092892;28;19927;-75
2021/12/02 14:10:26;;;;;;;;;;;;;;;;;;5092994;28;19920;-75
2021/12/02 14:12:54;;;;;;;;;;;;;;;;;;5075485;28;19963;-76
2021/12/02 14:15:20;;;;;;;;;;;;;;;;;;5083380;28;19930;-77
2021/12/02 14:18:06;;;;;;;;;;;;;;;;;;5095589;28;19919;-75
2021/12/02 14:20:42;;;;;;;;;;;;;;;;;;5095178;28;20383;-74
2021/12/02 14:23:10;;;;;;;;;;;;;;;;;;5095542;28;19985;-76
2021/12/02 14:25:37;;;;;;;;;;;;;;;;;;5095560;28;19920;-75
2021/12/02 14:28:12;;;;;;;;;;;;;;;;;;5087774;28;19979;-75
2021/12/02 14:31:00;;;;;;;;;;;;;;;;;;5085019;28;19926;-75
2021/12/02 14:33:37;;;;;;;;;;;;;;;;;;5085677;28;19965;-75
2021/12/02 14:36:10;;;;;;;;;;;;;;;;;;5095437;28;19916;-76
2021/12/02 14:38:50;;;;;;;;;;;;;;;;;;5095362;28;19939;-75
2021/12/02 14:41:15;;;;;;;;;;;;;;;;;;5094260;28;19942;-75
2021/12/02 14:44:04;;;;;;;;;;;;;;;;;;5095233;28;19924;-75
2021/12/02 14:46:33;;;;;;;;;;;;;;;;;;5086737;28;19912;-86
2021/12/02 14:48:58;;;;;;;;;;;;;;;;;;5094817;28;19920;-75
2021/12/02 14:51:23;;;;;;;;;;;;;;;;;;5095019;28;20417;-75
2021/12/02 14:53:52;;;;;;;;;;;;;;;;;;5093761;28;19916;-75
2021/12/02 14:56:27;;;;;;;;;;;;;;;;;;5095056;28;19912;-78
2021/12/02 14:59:11;;;;;;;;;;;;;;;;;;5095011;28;19916;-84
2021/12/02 15:01:53;;;;;;;;;;;;;;;;;;5094836;28;19916;-77
2021/12/02 15:04:19;;;;;;;;;;;;;;;;;;5094881;28;20443;-81
2021/12/02 15:06:45;;;;;;;;;;;;;;;;;;5095226;28;19951;-79
2021/12/02 15:09:29;;;;;;;;;;;;;;;;;;5094749;28;19916;-75
2021/12/02 15:11:55;;;;;;;;;;;;;;;;;;5093751;28;19912;-75
2021/12/02 15:14:35;;;;;;;;;;;;;;;;;;5094650;28;20391;-75
2021/12/02 15:17:01;;;;;;;;;;;;;;;;;;5094573;28;19912;-75
2021/12/02 15:19:37;;;;;;;;;;;;;;;;;;5094528;28;19927;-87
2021/12/02 15:22:03;;;;;;;;;;;;;;;;;;5094315;28;19973;-75
2021/12/02 15:24:36;;;;;;;;;;;;;;;;;;5093186;28;19948;-77
2021/12/02 15:27:09;;;;;;;;;;;;;;;;;;5090381;28;20018;-77
2021/12/02 15:29:45;;;;;;;;;;;;;;;;;;5079543;28;19924;-79
2021/12/02 15:32:10;;;;;;;;;;;;;;;;;;5080091;28;19979;-77
2021/12/02 15:34:36;;;;;;;;;;;;;;;;;;5073759;28;20387;-77
2021/12/02 15:37:02;;;;;;;;;;;;;;;;;;5084941;28;19921;-75
2021/12/02 15:39:27;;;;;;;;;;;;;;;;;;5074120;28;19916;-79
2021/12/02 15:41:54;;;;;;;;;;;;;;;;;;5073791;28;19928;-76
2021/12/02 15:44:24;;;;;;;;;;;;;;;;;;5073691;28;19924;-85
2021/12/02 15:46:56;;;;;;;;;;;;;;;;;;5073855;28;19924;-75
2021/12/02 15:49:23;;;;;;;;;;;;;;;;;;5073710;28;20428;-74
2021/12/02 15:51:49;;;;;;;;;;;;;;;;;;5073657;28;20372;-72
2021/12/02 15:54:14;;;;;;;;;;;;;;;;;;5075814;28;19928;-73
2021/12/02 15:56:40;;;;;;;;;;;;;;;;;;5078708;28;19995;-72
2021/12/02 15:59:05;;;;;;;;;;;;;;;;;;5075435;28;20372;-74
2021/12/02 16:01:40;;;;;;;;;;;;;;;;;;5083802;28;19920;-73
2021/12/02 16:04:12;;;;;;;;;;;;;;;;;;5080219;28;19920;-74
2021/12/02 16:07:00;;;;;;;;;;;;;;;;;;5082765;28;19923;-74
2021/12/02 16:14:54;;;;;;;;;;;;;;;;;;5080395;28;20004;-74
2021/12/02 16:17:19;;;;;;;;;;;;;;;;;;5082661;28;19966;-75
2021/12/02 16:19:45;;;;;;;;;;;;;;;;;;5075291;28;19920;-76
2021/12/02 16:22:11;;;;;;;;;;;;;;;;;;5072562;28;19917;-80
2021/12/02 16:24:36;;;;;;;;;;;;;;;;;;5076393;28;19986;-76
2021/12/02 16:27:02;;;;;;;;;;;;;;;;;;5077363;28;19931;-75
2021/12/02 16:29:30;;;;;;;;;;;;;;;;;;5075499;28;20012;-74
2021/12/02 16:31:57;;;;;;;;;;;;;;;;;;5075455;28;20225;-75
2021/12/02 16:34:28;;;;;;;;;;;;;;;;;;5076106;28;19963;-79
2021/12/02 16:36:54;;;;;;;;;;;;;;;;;;5057702;28;19920;-75
2021/12/02 16:39:20;;;;;;;;;;;;;;;;;;5099666;28;20437;-76
2021/12/02 16:41:45;;;;;;;;;;;;;;;;;;5074670;28;19949;-74
2021/12/02 16:44:11;;;;;;;;;;;;;;;;;;5078786;28;19920;-74
2021/12/02 16:46:37;;;;;;;;;;;;;;;;;;5079042;28;19926;-74
2021/12/02 16:49:03;;;;;;;;;;;;;;;;;;5085950;28;20023;-73
2021/12/02 16:51:30;;;;;;;;;;;;;;;;;;5055812;28;19929;-74
2021/12/02 16:53:59;;;;;;;;;;;;;;;;;;5078076;28;19943;-75
2021/12/02 16:56:24;;;;;;;;;;;;;;;;;;5083097;28;19993;-75
2021/12/02 16:58:51;;;;;;;;;;;;;;;;;;5082221;28;19970;-75
2021/12/02 17:01:16;;;;;;;;;;;;;;;;;;5072422;28;20364;-76
2021/12/02 17:03:43;;;;;;;;;;;;;;;;;;5083294;28;19935;-76
2021/12/02 17:06:09;;;;;;;;;;;;;;;;;;5072720;28;19921;-77
2021/12/02 17:08:34;;;;;;;;;;;;;;;;;;5072826;28;20311;-76
2021/12/02 17:11:02;;;;;;;;;;;;;;;;;;5053820;28;20046;-76
2021/12/02 17:13:28;;;;;;;;;;;;;;;;;;5083222;28;19920;-78
2021/12/02 17:15:54;;;;;;;;;;;;;;;;;;5072719;28;19923;-80
2021/12/02 17:18:19;;;;;;;;;;;;;;;;;;5054795;28;20315;-84
2021/12/02 17:20:45;;;;;;;;;;;;;;;;;;5072603;28;19962;-78
2021/12/02 17:23:13;;;;;;;;;;;;;;;;;;5072867;28;19928;-84
2021/12/02 17:25:39;;;;;;;;;;;;;;;;;;5075864;28;20299;-86